Time;durP1;ratioP1;P1;durP2;ratioP2;P2;SDS_P1;SDS_P2;PMS_P1;PMS_P2;Temp;Humidity;BMP_temperature;BMP_pressure;BME280_temperature;BME280_humidity;BME280_pressure;Samples;Min_cycle;Max_cycle;Signal;HPM_P1;HPM_P2
2021/06/04 00:02:04;;;;;;;23.02;7.38;;;;;;;13.67;58.11;100817.56;5122564;28;20057;-72
2021/06/04 00:04:31;;;;;;;17.85;6.95;;;;;;;13.80;58.29;100846.69;5106976;28;20542;-67
2021/06/04 00:06:58;;;;;;;17.58;8.57;;;;;;;13.70;58.60;100833.53;5089269;28;20122;-68
2021/06/04 00:09:24;;;;;;;20.20;8.48;;;;;;;13.72;58.33;100837.03;5116401;28;20043;-69
2021/06/04 00:11:54;;;;;;;17.33;8.73;;;;;;;13.66;58.80;100838.00;5123020;28;20430;-68
2021/06/04 00:14:25;;;;;;;32.22;9.05;;;;;;;13.64;58.55;100839.84;5103812;28;20092;-65
2021/06/04 00:16:56;;;;;;;22.25;9.93;;;;;;;13.63;58.77;100853.19;5096228;27;20067;-66
2021/06/04 00:19:25;;;;;;;25.33;10.40;;;;;;;13.50;59.16;100843.63;5101049;27;20035;-68
2021/06/04 00:22:05;;;;;;;22.27;10.00;;;;;;;13.56;59.27;100851.50;5118648;27;20039;-67
2021/06/04 00:24:32;;;;;;;19.50;9.57;;;;;;;13.51;59.02;100846.25;5104882;27;20047;-72
2021/06/04 00:27:05;;;;;;;24.77;9.52;;;;;;;13.52;59.21;100856.00;5129253;27;20518;-70
2021/06/04 00:29:31;;;;;;;22.48;9.90;;;;;;;13.36;59.47;100832.25;5110004;27;20046;-67
2021/06/04 00:31:57;;;;;;;19.80;10.15;;;;;;;13.49;59.44;100864.03;5094787;28;20040;-71
2021/06/04 00:34:24;;;;;;;28.10;11.60;;;;;;;13.44;59.35;100851.69;5122919;27;20690;-68
2021/06/04 00:36:52;;;;;;;27.98;10.70;;;;;;;13.41;59.80;100859.72;5109662;27;20233;-67
2021/06/04 00:39:21;;;;;;;26.00;10.68;;;;;;;13.42;59.55;100862.34;5109541;27;20045;-66
2021/06/04 00:41:55;;;;;;;20.05;10.07;;;;;;;13.43;59.72;100868.56;5124934;27;20139;-65
2021/06/04 00:44:22;;;;;;;21.20;10.40;;;;;;;13.44;59.55;100860.56;5110083;27;20047;-66
2021/06/04 00:46:49;;;;;;;22.48;10.70;;;;;;;13.37;59.80;100871.31;5113717;27;20044;-65
2021/06/04 00:49:15;;;;;;;19.15;9.50;;;;;;;12.99;59.63;100799.94;5107506;27;20438;-65
2021/06/04 00:51:52;;;;;;;25.88;10.35;;;;;;;13.30;59.49;100851.00;5126324;27;20039;-66
2021/06/04 00:54:22;;;;;;;19.42;10.07;;;;;;;13.33;59.90;100869.59;5126460;27;20451;-68
2021/06/04 00:56:48;;;;;;;22.52;9.45;;;;;;;13.34;59.51;100868.72;5091767;27;20842;-67
2021/06/04 00:59:24;;;;;;;18.65;9.77;;;;;;;13.29;60.17;100876.75;5109221;27;20043;-65
2021/06/04 01:01:55;;;;;;;22.70;9.18;;;;;;;13.30;59.73;100881.16;5124576;27;20410;-69
2021/06/04 01:04:24;;;;;;;21.70;9.68;;;;;;;13.32;59.44;100886.47;5104461;28;20592;-65
2021/06/04 01:07:23;;;;;;;23.98;9.27;;;;;;;13.23;59.85;100886.63;5123697;27;20039;-66
2021/06/04 01:09:52;;;;;;;19.23;8.77;;;;;;;13.26;59.75;100886.59;5127770;27;20047;-68
2021/06/04 01:12:44;;;;;;;18.42;8.15;;;;;;;13.21;59.97;100883.97;5125961;27;20054;-67
2021/06/04 01:15:34;;;;;;;21.40;8.13;;;;;;;13.24;59.80;100894.59;5120321;27;20043;-67
2021/06/04 01:18:09;;;;;;;15.55;7.25;;;;;;;13.22;59.72;100890.19;5096021;28;20100;-67
2021/06/04 01:20:42;;;;;;;17.50;7.30;;;;;;;13.17;59.61;100890.22;5122030;27;20047;-64
2021/06/04 01:23:30;;;;;;;13.70;7.25;;;;;;;13.10;59.95;100893.88;5127573;27;20042;-67
2021/06/04 01:26:12;;;;;;;17.55;6.40;;;;;;;13.25;59.24;100899.00;5125901;27;20057;-74
2021/06/04 01:28:45;;;;;;;15.60;6.47;;;;;;;13.23;59.32;100897.28;5121692;27;20051;-77
2021/06/04 01:31:21;;;;;;;15.65;5.90;;;;;;;13.21;59.45;100897.28;5105101;27;20051;-69
2021/06/04 01:33:56;;;;;;;27.17;6.15;;;;;;;13.20;59.39;100899.97;5117111;27;20031;-70
2021/06/04 01:36:28;;;;;;;16.05;6.20;;;;;;;13.22;59.06;100899.03;5109118;27;20042;-70
2021/06/04 01:39:00;;;;;;;10.05;4.95;;;;;;;13.18;59.46;100899.13;5126128;27;20035;-70
2021/06/04 01:41:31;;;;;;;12.45;5.40;;;;;;;13.23;59.12;100899.94;5107574;27;20038;-74
2021/06/04 01:44:08;;;;;;;22.08;6.35;;;;;;;13.18;59.43;100907.09;5109066;27;20046;-71
2021/06/04 01:46:43;;;;;;;14.63;5.20;;;;;;;13.14;59.21;100900.91;5099326;28;20039;-71
2021/06/04 01:49:17;;;;;;;13.20;4.88;;;;;;;13.18;59.42;100902.66;5117585;27;20119;-69
2021/06/04 01:51:57;;;;;;;10.70;4.80;;;;;;;13.21;59.33;100897.28;5125501;27;20039;-71
2021/06/04 01:54:54;;;;;;;13.05;5.28;;;;;;;13.21;59.44;100899.94;5124639;27;20050;-71
2021/06/04 01:57:37;;;;;;;15.32;4.88;;;;;;;13.23;59.41;100911.47;5125531;27;20089;-69
2021/06/04 02:00:13;;;;;;;8.43;4.45;;;;;;;13.28;59.00;100903.41;5126098;27;20035;-71
2021/06/04 02:02:59;;;;;;;13.30;4.57;;;;;;;13.27;58.87;100904.31;5122434;27;20506;-71
2021/06/04 02:05:38;;;;;;;8.65;4.75;;;;;;;13.20;59.35;100906.19;5086789;28;20092;-72
2021/06/04 02:08:11;;;;;;;12.40;4.53;;;;;;;13.24;59.05;100912.34;5118047;27;20507;-73
2021/06/04 02:10:42;;;;;;;7.32;4.10;;;;;;;13.26;58.59;100911.41;5124929;27;20101;-74
2021/06/04 02:13:10;;;;;;;11.68;3.80;;;;;;;13.23;59.04;100907.94;5118118;27;20085;-72
2021/06/04 02:15:48;;;;;;;13.85;4.45;;;;;;;13.35;59.07;100916.66;5088221;27;20046;-74
2021/06/04 02:18:39;;;;;;;8.55;3.80;;;;;;;13.43;58.73;100913.88;5098983;27;20069;-72
2021/06/04 02:21:24;;;;;;;5.90;3.42;;;;;;;13.44;58.78;100913.84;5106163;27;20039;-74
2021/06/04 02:24:08;;;;;;;10.55;3.83;;;;;;;13.47;58.63;100915.59;5124179;27;20054;-73
2021/06/04 02:26:57;;;;;;;8.13;3.45;;;;;;;13.51;58.48;100910.22;5105656;27;20083;-74
2021/06/04 02:29:37;;;;;;;13.88;3.70;;;;;;;13.56;58.27;100910.13;5125536;27;20039;-74
2021/06/04 02:32:27;;;;;;;12.25;3.22;;;;;;;13.59;57.87;100903.00;5124700;27;20107;-72
2021/06/04 02:35:20;;;;;;;9.13;3.40;;;;;;;13.52;58.13;100892.41;5124458;27;20091;-71
2021/06/04 02:37:54;;;;;;;9.88;3.53;;;;;;;13.65;57.78;100912.69;5122066;27;20066;-72
2021/06/04 02:40:31;;;;;;;8.52;3.67;;;;;;;13.72;57.68;100914.34;5086943;28;20047;-73
2021/06/04 02:43:23;;;;;;;9.02;3.35;;;;;;;13.74;57.58;100921.41;5099332;27;20502;-72
2021/06/04 02:46:12;;;;;;;10.77;3.17;;;;;;;13.86;57.47;100920.38;5101725;27;20103;-72
2021/06/04 02:48:42;;;;;;;13.65;3.58;;;;;;;13.84;57.13;100912.38;5126070;27;20122;-71
2021/06/04 02:51:17;;;;;;;15.68;3.10;;;;;;;13.93;57.11;100920.25;5106488;27;20039;-71
2021/06/04 02:53:54;;;;;;;11.82;3.80;;;;;;;13.85;56.93;100886.63;5113524;27;20046;-74
2021/06/04 02:56:20;;;;;;;15.32;4.18;;;;;;;14.07;56.81;100909.34;5105403;27;20067;-72
2021/06/04 02:59:01;;;;;;;10.27;3.72;;;;;;;14.02;57.03;100910.34;5117572;27;20057;-72
2021/06/04 03:01:32;;;;;;;17.05;4.45;;;;;;;14.03;56.61;100891.63;5114790;27;20040;-72
2021/06/04 03:04:03;;;;;;;14.45;3.70;;;;;;;14.19;56.87;100911.81;5100962;27;20150;-73
2021/06/04 03:06:40;;;;;;;15.70;4.63;;;;;;;14.29;56.63;100920.59;5105611;27;20432;-71
2021/06/04 03:09:13;;;;;;;16.35;4.50;;;;;;;14.27;56.19;100904.63;5104643;27;20055;-70
2021/06/04 03:11:44;;;;;;;16.13;4.90;;;;;;;14.45;55.99;100923.00;5093825;28;20386;-71
2021/06/04 03:14:13;;;;;;;15.70;4.43;;;;;;;14.49;56.20;100919.38;5085731;28;20043;-71
2021/06/04 03:16:40;;;;;;;17.35;4.32;;;;;;;14.50;55.67;100907.78;5096021;28;20040;-72
2021/06/04 03:19:12;;;;;;;20.27;4.75;;;;;;;14.49;55.71;100902.44;5102322;28;20168;-72
2021/06/04 03:21:42;;;;;;;9.82;4.65;;;;;;;14.59;55.62;100922.75;5113315;28;20043;-75
2021/06/04 03:24:14;;;;;;;12.85;4.88;;;;;;;14.56;55.49;100907.66;5098081;28;20108;-72
2021/06/04 03:26:44;;;;;;;10.25;3.80;;;;;;;14.59;55.29;100912.06;5105860;28;20043;-74
2021/06/04 03:29:17;;;;;;;9.40;4.22;;;;;;;14.75;55.22;100925.09;5106506;28;20050;-76
2021/06/04 03:31:55;;;;;;;7.93;3.67;;;;;;;14.80;54.98;100931.25;5118765;28;20039;-79
2021/06/04 03:34:23;;;;;;;10.80;4.03;;;;;;;14.84;54.83;100927.63;5124270;28;20086;-75
2021/06/04 03:36:54;;;;;;;12.38;4.43;;;;;;;14.91;55.23;100923.91;5125520;28;20055;-73
2021/06/04 03:39:32;;;;;;;8.65;4.00;;;;;;;14.98;54.79;100933.56;5110113;28;20130;-74
2021/06/04 03:42:00;;;;;;;8.98;3.72;;;;;;;15.01;54.45;100940.63;5119181;28;20035;-77
2021/06/04 03:44:31;;;;;;;7.63;4.03;;;;;;;15.04;54.21;100927.22;5102939;28;20337;-71
2021/06/04 03:46:58;;;;;;;12.65;3.83;;;;;;;15.10;54.49;100929.75;5119587;28;20088;-75
2021/06/04 03:49:25;;;;;;;12.30;3.80;;;;;;;15.08;54.39;100931.59;5123149;27;20642;-76
2021/06/04 03:51:55;;;;;;;8.18;3.53;;;;;;;15.17;54.24;100923.38;5090350;28;20043;-75
2021/06/04 03:54:32;;;;;;;12.77;3.78;;;;;;;15.26;53.66;100913.38;5126198;27;20039;-77
2021/06/04 03:57:03;;;;;;;8.15;3.20;;;;;;;15.34;54.05;100923.91;5129195;27;20043;-76
2021/06/04 03:59:29;;;;;;;15.45;3.30;;;;;;;15.36;53.33;100925.69;5126187;27;20043;-72
2021/06/04 04:02:00;;;;;;;8.02;3.13;;;;;;;15.43;53.59;100921.09;5126070;27;20043;-69
2021/06/04 04:04:27;;;;;;;8.73;4.43;;;;;;;15.53;53.21;100925.31;5111067;27;20111;-71
2021/06/04 04:06:54;;;;;;;7.93;2.80;;;;;;;15.53;52.55;100918.19;5094060;27;20626;-74
2021/06/04 04:09:20;;;;;;;8.95;3.60;;;;;;;15.64;52.91;100920.63;5129399;27;20039;-69
2021/06/04 04:11:49;;;;;;;10.82;3.35;;;;;;;15.61;52.97;100915.34;5130865;27;20108;-70
2021/06/04 04:14:15;;;;;;;8.23;3.30;;;;;;;15.75;53.01;100922.13;5132705;27;20043;-75
2021/06/04 04:16:42;;;;;;;15.50;3.58;;;;;;;15.83;53.23;100922.84;5110581;27;20082;-75
2021/06/04 04:19:10;;;;;;;11.30;3.70;;;;;;;15.85;52.67;100918.34;5119242;27;20126;-74
2021/06/04 04:21:37;;;;;;;8.57;3.25;;;;;;;15.83;52.79;100925.50;5128052;27;20049;-73
2021/06/04 04:24:12;;;;;;;7.53;3.42;;;;;;;15.86;52.91;100920.09;5125818;27;20372;-73
2021/06/04 04:26:40;;;;;;;8.52;3.17;;;;;;;15.97;52.39;100914.50;5091080;28;20040;-71
2021/06/04 04:29:06;;;;;;;6.82;3.30;;;;;;;15.92;52.85;100895.00;5109039;28;20047;-72
2021/06/04 04:31:35;;;;;;;11.57;3.40;;;;;;;16.04;52.62;100916.13;5104967;28;20048;-73
2021/06/04 04:34:05;;;;;;;13.98;3.33;;;;;;;16.06;52.37;100907.13;5113469;27;20405;-73
2021/06/04 04:36:39;;;;;;;9.25;3.40;;;;;;;16.08;51.85;100894.63;5127884;27;20058;-75
2021/06/04 04:39:08;;;;;;;8.80;3.13;;;;;;;16.16;51.86;100906.00;5118440;27;20040;-73
2021/06/04 04:41:34;;;;;;;11.60;2.88;;;;;;;16.12;52.08;100892.72;5106734;27;20039;-73
2021/06/04 04:44:01;;;;;;;9.27;3.70;;;;;;;16.15;51.97;100888.19;5108743;27;20100;-74
2021/06/04 04:46:29;;;;;;;12.65;3.13;;;;;;;16.30;51.60;100901.16;5104875;27;20127;-74
2021/06/04 04:48:57;;;;;;;14.88;3.03;;;;;;;16.33;51.47;100900.22;5118782;27;20472;-73
2021/06/04 04:51:26;;;;;;;14.15;3.40;;;;;;;16.38;51.18;100891.16;5092537;27;20886;-72
2021/06/04 04:53:52;;;;;;;9.20;2.72;;;;;;;16.39;50.63;100887.56;5126264;27;20705;-73
2021/06/04 04:56:20;;;;;;;10.32;3.10;;;;;;;16.57;51.04;100902.28;5107455;27;20690;-71
2021/06/04 04:58:47;;;;;;;17.58;3.58;;;;;;;16.61;50.47;100901.28;5127418;27;20053;-74
2021/06/04 05:01:15;;;;;;;9.32;2.65;;;;;;;16.65;50.16;100902.97;5124100;27;20039;-73
2021/06/04 05:03:42;;;;;;;10.65;2.95;;;;;;;16.51;49.72;100883.72;5113197;27;20086;-73
2021/06/04 05:06:09;;;;;;;8.75;2.65;;;;;;;16.68;49.75;100906.47;5102740;27;20096;-72
2021/06/04 05:08:36;;;;;;;10.55;3.10;;;;;;;16.77;49.79;100900.00;5111210;27;20517;-72
2021/06/04 05:11:04;;;;;;;6.25;3.22;;;;;;;16.84;48.86;100906.91;5106313;27;20050;-71
2021/06/04 05:13:31;;;;;;;7.20;2.83;;;;;;;16.70;49.54;100877.81;5106515;28;20059;-81
2021/06/04 05:15:59;;;;;;;6.85;2.85;;;;;;;16.90;48.53;100907.63;5106663;27;20443;-79
2021/06/04 05:18:26;;;;;;;9.48;2.60;;;;;;;16.92;48.76;100907.59;5096029;27;20035;-70
2021/06/04 05:20:54;;;;;;;10.25;2.88;;;;;;;16.99;47.89;100907.41;5126949;27;20051;-79
2021/06/04 05:23:20;;;;;;;10.50;2.90;;;;;;;17.04;48.03;100900.09;5108446;27;20047;-77
2021/06/04 05:25:48;;;;;;;13.88;2.70;;;;;;;17.09;47.34;100908.03;5126683;27;20045;-81
2021/06/04 05:28:19;;;;;;;12.57;2.58;;;;;;;17.10;46.39;100909.78;5109248;27;20074;-74
2021/06/04 05:30:48;;;;;;;10.20;2.42;;;;;;;17.16;46.15;100909.56;5112984;27;20044;-72
2021/06/04 05:33:19;;;;;;;9.05;2.55;;;;;;;17.22;46.58;100909.41;5098361;27;20031;-73
2021/06/04 05:35:45;;;;;;;9.38;2.42;;;;;;;17.31;46.66;100909.13;5107562;27;20088;-73
2021/06/04 05:38:12;;;;;;;6.78;2.30;;;;;;;17.33;46.37;100896.59;5127286;27;20047;-72
2021/06/04 05:40:41;;;;;;;9.88;2.60;;;;;;;17.21;46.27;100889.75;5109471;27;20065;-72
2021/06/04 05:43:10;;;;;;;13.30;2.83;;;;;;;17.31;45.70;100907.34;5123718;27;20058;-70
2021/06/04 05:45:40;;;;;;;13.10;2.83;;;;;;;17.37;45.41;100900.94;5100675;28;20054;-73
2021/06/04 05:48:07;;;;;;;12.27;2.95;;;;;;;17.40;45.62;100906.19;5104851;27;20043;-72
2021/06/04 05:50:37;;;;;;;8.80;2.58;;;;;;;17.40;45.77;100895.44;5121876;27;20501;-71
2021/06/04 05:53:08;;;;;;;10.55;2.67;;;;;;;17.35;45.92;100873.25;5091730;27;20035;-73
2021/06/04 05:55:36;;;;;;;11.35;2.80;;;;;;;17.48;46.08;100888.97;5126814;27;20103;-72
2021/06/04 05:58:04;;;;;;;11.27;3.28;;;;;;;17.58;45.56;100894.94;5108126;27;20046;-75
2021/06/04 06:00:35;;;;;;;11.23;3.50;;;;;;;17.68;45.22;100901.78;5091594;27;20085;-73
2021/06/04 06:03:04;;;;;;;6.15;2.83;;;;;;;17.68;44.73;100886.56;5112823;27;20051;-74
2021/06/04 06:05:31;;;;;;;14.63;3.20;;;;;;;17.73;44.21;100899.84;5094496;28;20463;-72
2021/06/04 06:07:57;;;;;;;9.10;3.45;;;;;;;17.79;43.65;100894.28;5120104;27;20023;-73
2021/06/04 06:10:23;;;;;;;8.52;3.28;;;;;;;17.85;43.96;100892.28;5117207;27;20122;-73
2021/06/04 06:12:51;;;;;;;7.15;3.17;;;;;;;17.84;43.82;100895.00;5119269;27;20051;-72
2021/06/04 06:15:18;;;;;;;10.48;3.40;;;;;;;17.67;43.88;100857.09;5117516;27;20095;-67
2021/06/04 06:17:44;;;;;;;14.20;3.13;;;;;;;17.91;44.00;100881.34;5123176;27;20058;-73
2021/06/04 06:20:16;;;;;;;9.18;2.83;;;;;;;18.04;43.49;100906.88;5102226;27;20048;-72
2021/06/04 06:22:44;;;;;;;12.20;3.25;;;;;;;18.03;43.13;100891.69;5093409;27;20042;-74
2021/06/04 06:25:18;;;;;;;13.45;2.80;;;;;;;18.12;43.20;100900.38;5100652;27;20042;-74
2021/06/04 06:27:44;;;;;;;12.60;3.17;;;;;;;18.15;42.99;100897.59;5117126;27;20046;-74
2021/06/04 06:30:17;;;;;;;10.48;3.05;;;;;;;18.28;43.26;100902.53;5118146;27;20054;-71
2021/06/04 06:32:43;;;;;;;15.75;3.05;;;;;;;18.34;42.61;100896.03;5115690;27;20467;-73
2021/06/04 06:35:11;;;;;;;5.05;2.78;;;;;;;18.32;42.63;100896.13;5103372;27;20142;-68
2021/06/04 06:37:37;;;;;;;8.60;2.78;;;;;;;18.33;42.85;100895.19;5094782;27;20035;-72
2021/06/04 06:40:05;;;;;;;14.05;2.88;;;;;;;18.36;42.36;100887.06;5115103;27;20046;-73
2021/06/04 06:42:31;;;;;;;14.48;3.33;;;;;;;18.48;42.18;100893.81;5117215;27;20043;-72
2021/06/04 06:44:57;;;;;;;7.97;3.10;;;;;;;18.52;42.02;100888.28;5114358;27;20043;-76
2021/06/04 06:47:23;;;;;;;7.75;2.92;;;;;;;18.25;41.90;100872.19;5086942;28;20047;-75
2021/06/04 06:49:49;;;;;;;10.43;4.38;;;;;;;18.42;42.12;100891.31;5101314;27;20045;-74
2021/06/04 06:52:15;;;;;;;15.20;2.90;;;;;;;18.48;41.26;100891.13;5095885;27;20035;-75
2021/06/04 06:54:43;;;;;;;9.18;2.45;;;;;;;18.50;41.15;100891.94;5114183;27;20488;-71
2021/06/04 06:57:09;;;;;;;9.98;2.38;;;;;;;18.62;41.02;100880.78;5113282;27;20057;-76
2021/06/04 06:59:36;;;;;;;11.85;2.88;;;;;;;18.75;41.32;100890.19;5114802;27;20053;-72
2021/06/04 07:02:10;;;;;;;6.95;2.30;;;;;;;18.81;40.76;100893.50;5093558;27;20054;-72
2021/06/04 07:04:37;;;;;;;8.00;2.33;;;;;;;18.79;40.70;100878.38;5116989;27;20046;-79
2021/06/04 07:07:04;;;;;;;15.25;2.78;;;;;;;19.10;39.97;100892.47;5102846;27;20047;-77
2021/06/04 07:09:30;;;;;;;6.05;1.67;;;;;;;19.41;39.43;100890.41;5116519;27;20043;-81
2021/06/04 07:11:57;;;;;;;7.13;1.83;;;;;;;19.72;38.76;100905.31;5117470;27;20105;-83
2021/06/04 07:14:29;;;;;;;6.43;1.58;;;;;;;19.79;37.50;100887.09;5098192;27;20043;-79
2021/06/04 07:16:56;;;;;;;14.30;2.22;;;;;;;19.98;37.63;100888.13;5113946;27;20047;-74
2021/06/04 07:19:23;;;;;;;9.65;1.80;;;;;;;20.42;36.79;100887.19;5116845;27;20066;-74
2021/06/04 07:21:50;;;;;;;9.05;1.90;;;;;;;20.54;35.11;100884.88;5121550;28;20047;-76
2021/06/04 07:24:19;;;;;;;11.90;2.55;;;;;;;21.10;34.59;100898.59;5093535;28;20368;-81
2021/06/04 07:26:53;;;;;;;13.77;1.80;;;;;;;21.54;33.67;100900.13;5123102;27;20066;-71
2021/06/04 07:29:22;;;;;;;8.07;2.00;;;;;;;21.73;33.45;100891.09;5120961;28;20043;-76
2021/06/04 07:31:49;;;;;;;5.30;1.65;;;;;;;21.83;33.21;100896.94;5113758;28;20256;-74
2021/06/04 07:34:16;;;;;;;8.70;2.00;;;;;;;21.87;33.29;100895.84;5110690;28;20035;-71
2021/06/04 07:36:47;;;;;;;12.23;1.45;;;;;;;22.18;32.93;100895.25;5115486;28;20062;-73
2021/06/04 07:39:18;;;;;;;10.27;1.80;;;;;;;22.44;32.31;100889.41;5117771;28;20043;-74
2021/06/04 07:41:45;;;;;;;11.65;1.67;;;;;;;22.96;30.76;100886.66;5113717;28;20041;-72
2021/06/04 07:44:15;;;;;;;4.60;1.23;;;;;;;23.12;30.33;100874.06;5113089;28;20047;-73
2021/06/04 07:46:44;;;;;;;17.83;2.17;;;;;;;23.51;29.77;100882.75;5115694;28;20035;-73
2021/06/04 07:49:10;;;;;;;6.65;1.85;;;;;;;23.85;29.01;100877.19;5110486;28;20047;-73
2021/06/04 07:51:41;;;;;;;9.23;1.83;;;;;;;24.27;29.38;100872.06;5117700;28;20050;-77
2021/06/04 07:54:11;;;;;;;15.68;1.60;;;;;;;24.52;29.06;100875.06;5119188;28;20047;-83
2021/06/04 07:56:42;;;;;;;12.20;1.85;;;;;;;24.73;28.84;100878.38;5096838;28;20046;-82
2021/06/04 07:59:08;;;;;;;10.05;1.92;;;;;;;24.81;28.53;100838.91;5089314;28;20126;-77
2021/06/04 08:01:34;;;;;;;6.38;1.45;;;;;;;25.27;27.17;100873.13;5119052;27;20129;-80
2021/06/04 08:04:03;;;;;;;8.40;1.60;;;;;;;25.87;26.75;100869.22;5116613;28;20084;-84
2021/06/04 08:06:32;;;;;;;14.40;1.40;;;;;;;25.89;26.08;100852.81;5107158;28;20487;-83
2021/06/04 08:08:58;;;;;;;8.40;1.45;;;;;;;26.94;25.21;100872.84;5097994;28;20053;-83
2021/06/04 08:11:35;;;;;;;8.20;1.60;;;;;;;27.23;24.54;100873.53;5100301;28;20564;-78
2021/06/04 08:14:06;;;;;;;3.55;1.33;;;;;;;27.90;23.06;100857.69;5110042;28;20122;-76
2021/06/04 08:16:37;;;;;;;7.90;1.38;;;;;;;28.61;22.38;100868.63;5117657;28;20039;-79
2021/06/04 08:19:04;;;;;;;8.82;1.77;;;;;;;29.30;21.56;100872.22;5126372;28;20134;-77
2021/06/04 08:21:36;;;;;;;11.48;1.90;;;;;;;30.37;20.21;100863.34;5113399;28;20144;-78
2021/06/04 08:24:02;;;;;;;9.90;1.40;;;;;;;31.03;19.02;100863.06;5110043;28;20170;-79
2021/06/04 08:26:33;;;;;;;7.88;1.73;;;;;;;31.79;18.70;100858.03;5124804;28;20060;-80
2021/06/04 08:29:01;;;;;;;13.52;1.40;;;;;;;32.01;17.95;100862.44;5079743;28;20100;-79
2021/06/04 08:31:30;;;;;;;5.32;1.30;;;;;;;32.52;17.21;100868.66;5122723;28;20042;-81
2021/06/04 08:33:57;;;;;;;21.38;1.63;;;;;;;32.51;17.29;100858.69;5087628;28;20040;-84
2021/06/04 08:36:31;;;;;;;14.60;1.63;;;;;;;32.48;17.12;100861.72;5080529;27;20043;-82
2021/06/04 08:38:59;;;;;;;5.93;1.15;;;;;;;33.49;16.37;100865.72;5127470;27;20050;-81
2021/06/04 08:41:48;;;;;;;12.95;1.63;;;;;;;33.58;15.69;100860.19;5127675;27;20886;-79
2021/06/04 08:44:17;;;;;;;18.27;2.08;;;;;;;33.49;15.99;100860.22;5104431;27;20104;-87
2021/06/04 08:46:51;;;;;;;5.70;1.67;;;;;;;33.00;16.34;100864.94;5120158;27;20512;-84
2021/06/04 08:49:36;;;;;;;13.68;1.20;;;;;;;34.66;14.71;100853.75;5115465;27;20043;-79
2021/06/04 08:52:30;;;;;;;3.30;1.00;;;;;;;35.04;14.10;100847.94;5113147;27;20039;-70
2021/06/04 08:55:12;;;;;;;7.80;1.27;;;;;;;36.19;13.75;100853.81;5105396;27;20775;-71
2021/06/04 08:57:50;;;;;;;21.40;1.65;;;;;;;36.45;13.48;100849.94;5120999;27;20118;-72
2021/06/04 09:00:30;;;;;;;4.78;1.02;;;;;;;35.60;13.64;100840.06;5101685;27;20089;-72
2021/06/04 09:03:02;;;;;;;3.97;1.40;;;;;;;35.93;13.60;100831.81;5118479;27;20071;-72
2021/06/04 09:05:46;;;;;;;8.35;1.20;;;;;;;36.64;12.96;100846.88;5102294;27;20129;-71
2021/06/04 09:08:17;;;;;;;6.60;1.50;;;;;;;35.90;13.62;100801.75;5114693;27;20462;-73
2021/06/04 09:10:49;;;;;;;;;;;;;;;35.68;13.60;100829.91;5111671;27;20507;-73
2021/06/04 09:13:15;;;;;;;6.45;1.90;;;;;;;36.26;13.64;100821.72;5106190;27;19920;-72
2021/06/04 09:15:44;;;;;;;13.27;1.17;;;;;;;36.06;13.30;100823.91;5120476;27;20108;-75
2021/06/04 09:18:24;;;;;;;7.60;1.40;;;;;;;36.14;13.13;100818.38;5113811;27;20142;-73
2021/06/04 09:21:00;;;;;;;6.20;1.20;;;;;;;35.84;13.24;100798.78;5120755;27;20080;-72
2021/06/04 09:23:39;;;;;;;10.02;1.20;;;;;;;37.11;12.54;100805.56;5103751;27;20043;-73
2021/06/04 09:26:10;;;;;;;10.50;1.60;;;;;;;37.83;12.33;100812.84;5127543;27;20043;-73
2021/06/04 09:28:47;;;;;;;5.65;1.65;;;;;;;37.75;11.90;100812.88;5105089;27;20125;-73
2021/06/04 09:31:32;;;;;;;27.65;2.58;;;;;;;37.52;12.13;100814.69;5106291;27;20049;-74
2021/06/04 09:34:15;;;;;;;27.55;2.15;;;;;;;37.35;12.31;100797.25;5113042;27;20043;-73
2021/06/04 09:36:44;;;;;;;5.85;1.15;;;;;;;37.26;12.17;100801.06;5127682;27;20062;-73
2021/06/04 09:39:24;;;;;;;9.75;1.20;;;;;;;37.59;11.83;100779.66;5101295;28;20096;-74
2021/06/04 09:41:52;;;;;;;37.20;2.25;;;;;;;36.90;12.21;100794.19;5114610;27;21270;-73
2021/06/04 09:44:21;;;;;;;10.02;1.20;;;;;;;37.77;11.74;100788.63;5089817;28;20044;-75
2021/06/04 09:46:59;;;;;;;8.77;1.23;;;;;;;37.68;11.57;100784.19;5092133;27;20153;-73
2021/06/04 09:49:40;;;;;;;17.73;1.63;;;;;;;38.20;11.44;100777.00;5089950;27;20902;-76
2021/06/04 09:52:29;;;;;;;12.82;1.52;;;;;;;37.59;11.45;100777.81;5121137;27;20048;-75
2021/06/04 09:55:17;;;;;;;16.35;1.70;;;;;;;38.95;10.80;100770.56;5122367;27;20043;-80
2021/06/04 09:58:15;;;;;;;9.02;1.15;;;;;;;39.25;10.35;100761.19;5120078;27;20467;-80
2021/06/04 10:01:03;;;;;;;8.82;1.10;;;;;;;39.00;10.55;100762.53;5101264;27;20468;-72
2021/06/04 10:03:41;;;;;;;9.05;1.30;;;;;;;38.51;11.39;100761.22;5085077;27;20053;-76
2021/06/04 10:06:10;;;;;;;5.95;1.30;;;;;;;38.98;10.63;100764.59;5104531;27;20531;-76
2021/06/04 10:08:48;;;;;;;8.75;1.52;;;;;;;39.15;10.68;100741.19;5105371;27;20043;-72
2021/06/04 10:11:26;;;;;;;9.00;1.40;;;;;;;39.41;10.46;100749.94;5118129;27;20532;-72
2021/06/04 10:19:20;;;;;;;12.38;1.83;;;;;;;38.29;11.34;100740.72;5109470;27;20138;-76
2021/06/04 10:21:48;;;;;;;11.70;1.48;;;;;;;38.97;10.71;100738.78;5112513;27;20123;-72
2021/06/04 10:24:26;;;;;;;8.38;1.30;;;;;;;39.43;10.59;100736.72;5099242;27;20040;-73
2021/06/04 10:26:55;;;;;;;15.57;1.60;;;;;;;40.01;10.85;100742.19;5114505;27;20070;-72
2021/06/04 10:29:22;;;;;;;2.95;1.13;;;;;;;38.25;11.52;100735.72;5093052;27;20054;-70
2021/06/04 10:32:12;;;;;;;5.00;1.40;;;;;;;39.27;10.50;100728.56;5104762;27;20047;-76
2021/06/04 10:34:50;;;;;;;7.10;1.10;;;;;;;38.93;11.13;100714.38;5117577;27;20066;-77
2021/06/04 10:37:29;;;;;;;11.40;1.20;;;;;;;38.11;11.03;100714.34;5114683;27;20050;-77
2021/06/04 10:40:06;;;;;;;15.02;1.60;;;;;;;38.16;11.40;100689.72;5084463;28;20259;-76
2021/06/04 10:42:42;;;;;;;10.95;1.23;;;;;;;38.58;10.64;100704.81;5113489;27;20367;-77
2021/06/04 10:45:13;;;;;;;9.90;1.10;;;;;;;39.41;10.32;100709.16;5111714;27;20211;-69
2021/06/04 10:48:04;;;;;;;6.60;1.05;;;;;;;39.64;10.46;100717.34;5110590;27;20169;-70
2021/06/04 10:50:58;;;;;;;7.93;1.13;;;;;;;39.61;9.75;100713.06;5113515;27;20081;-69
2021/06/04 10:53:44;;;;;;;7.93;1.00;;;;;;;38.81;10.50;100721.41;5100041;28;20916;-68
2021/06/04 10:56:35;;;;;;;8.93;1.10;;;;;;;38.37;10.72;100685.22;5115025;27;20751;-67
2021/06/04 10:59:23;;;;;;;18.15;1.20;;;;;;;38.16;10.72;100707.19;5114389;27;20042;-68
2021/06/04 11:01:55;;;;;;;11.63;1.33;;;;;;;38.04;11.11;100699.53;5095742;27;20048;-74
2021/06/04 11:04:29;;;;;;;33.97;1.67;;;;;;;37.76;11.35;100709.38;5119635;27;20050;-71
2021/06/04 11:07:02;;;;;;;13.90;0.98;;;;;;;37.47;10.98;100709.13;5091957;28;20043;-70
2021/06/04 11:09:54;;;;;;;9.35;1.00;;;;;;;37.89;10.87;100699.41;5116789;27;20099;-71
2021/06/04 11:12:39;;;;;;;6.65;1.05;;;;;;;37.04;11.50;100704.94;5089736;27;20059;-71
2021/06/04 11:15:21;;;;;;;8.15;1.20;;;;;;;36.50;12.19;100689.94;5088848;28;20040;-71
2021/06/04 11:17:54;;;;;;;7.60;1.10;;;;;;;35.86;12.59;100677.97;5100622;27;20078;-74
2021/06/04 11:20:27;;;;;;;14.15;1.20;;;;;;;35.68;12.79;100675.31;5106130;28;20134;-74
2021/06/04 11:23:17;;;;;;;15.32;1.10;;;;;;;34.56;12.97;100671.94;5118640;28;20058;-69
2021/06/04 11:25:54;;;;;;;57.53;2.17;;;;;;;33.97;13.40;100673.66;5124212;27;20395;-68
2021/06/04 11:28:44;;;;;;;19.95;1.50;;;;;;;33.93;13.64;100686.88;5125030;27;20042;-68
2021/06/04 11:31:51;;;;;;;39.08;1.98;;;;;;;33.56;13.75;100674.22;5126147;27;20039;-70
2021/06/04 11:34:36;;;;;;;8.27;0.88;;;;;;;33.23;14.38;100673.78;5114363;28;20051;-71
2021/06/04 11:37:42;;;;;;;13.85;1.30;;;;;;;33.65;14.43;100674.16;5122931;27;20039;-67
2021/06/04 11:40:20;;;;;;;10.93;1.58;;;;;;;32.80;14.53;100654.31;5098520;28;20122;-68
2021/06/04 11:42:55;;;;;;;15.02;1.40;;;;;;;31.81;15.53;100658.50;5125031;27;20043;-78
2021/06/04 11:45:25;;;;;;;10.30;1.45;;;;;;;31.88;15.30;100654.13;5123755;28;20502;-78
2021/06/04 11:47:52;;;;;;;11.02;1.05;;;;;;;31.72;15.85;100647.47;5092895;28;20039;-78
2021/06/04 11:50:29;;;;;;;7.05;1.00;;;;;;;31.83;15.46;100645.47;5103263;28;20419;-71
2021/06/04 11:53:31;;;;;;;10.77;1.20;;;;;;;31.53;15.83;100651.06;5102393;28;20150;-70